createdAt,value
2019-03-16T00:00:54.898Z,32.95
2019-03-16T00:01:57.344Z,35.33
2019-03-16T00:02:54.886Z,36.29
2019-03-16T00:03:54.866Z,34.79
2019-03-16T00:04:55.056Z,35.52
2019-03-16T00:05:54.853Z,36.15
2019-03-16T00:06:54.833Z,35.86
2019-03-16T00:07:54.827Z,36.38
2019-03-16T00:08:54.813Z,34.64
2019-03-16T00:09:54.804Z,36.80
2019-03-16T00:10:54.899Z,36.57
2019-03-16T00:11:54.926Z,35.26
2019-03-16T00:12:54.777Z,37.10
2019-03-16T00:13:54.766Z,35.43
2019-03-16T00:14:54.753Z,32.97
2019-03-16T00:15:54.742Z,36.35
2019-03-16T00:16:54.829Z,38.76
2019-03-16T00:17:54.715Z,37.05
2019-03-16T00:18:54.709Z,35.45
2019-03-16T00:19:54.695Z,33.56
2019-03-16T00:20:54.687Z,30.09
2019-03-16T00:21:54.678Z,29.99
2019-03-16T00:22:54.867Z,32.83
2019-03-16T00:23:54.656Z,33.22
2019-03-16T00:24:54.647Z,28.36
2019-03-16T00:25:54.634Z,27.07
2019-03-16T00:26:54.621Z,28.54
2019-03-16T00:27:54.661Z,29.89
2019-03-16T00:28:54.604Z,30.23
2019-03-16T00:29:54.593Z,31.26
2019-03-16T00:30:54.584Z,34.24
2019-03-16T00:31:54.573Z,35.18
2019-03-16T00:32:54.560Z,33.15
2019-03-16T00:33:54.648Z,36.42
2019-03-16T00:34:54.542Z,35.41
2019-03-16T00:35:54.525Z,35.30
2019-03-16T00:36:54.515Z,37.99
2019-03-16T00:37:54.506Z,36.49
2019-03-16T00:38:54.496Z,36.10
2019-03-16T00:39:54.637Z,32.92
2019-03-16T00:40:54.477Z,26.41
2019-03-16T00:41:54.463Z,26.13
2019-03-16T00:42:54.456Z,26.26
2019-03-16T00:43:54.440Z,26.58
2019-03-16T00:44:54.437Z,28.31
2019-03-16T00:45:54.523Z,30.97
2019-03-16T00:46:54.409Z,32.00
2019-03-16T00:47:54.401Z,31.64
2019-03-16T00:48:54.385Z,31.26
2019-03-16T00:49:54.374Z,35.93
2019-03-16T00:50:54.370Z,31.21
2019-03-16T00:51:54.456Z,30.11
2019-03-16T00:52:54.347Z,31.25
2019-03-16T00:53:54.333Z,29.92
2019-03-16T00:54:54.318Z,32.37
2019-03-16T00:55:54.310Z,33.20
2019-03-16T00:56:54.304Z,35.33
2019-03-16T00:57:54.442Z,34.50
2019-03-16T00:58:54.277Z,34.41
2019-03-16T00:59:54.269Z,34.12
2019-03-16T01:00:54.259Z,32.09
2019-03-16T01:01:54.247Z,35.18
2019-03-16T01:02:54.240Z,36.88
2019-03-16T01:03:54.278Z,33.48
2019-03-16T01:04:54.220Z,32.39
2019-03-16T01:05:54.201Z,32.81
2019-03-16T01:06:54.197Z,32.02
2019-03-16T01:07:54.184Z,32.97
2019-03-16T01:08:54.171Z,35.12
2019-03-16T01:09:54.264Z,35.99
2019-03-16T01:10:54.151Z,30.76
2019-03-16T01:11:54.144Z,30.26
2019-03-16T01:12:54.129Z,30.88
2019-03-16T01:13:54.120Z,32.55
2019-03-16T01:14:54.108Z,33.47
2019-03-16T01:15:54.499Z,32.99
2019-03-16T01:16:54.081Z,33.09
2019-03-16T01:17:54.077Z,33.12
2019-03-16T01:18:54.063Z,32.61
2019-03-16T01:19:54.053Z,33.02
2019-03-16T01:20:54.040Z,34.78
2019-03-16T01:21:54.079Z,34.78
2019-03-16T01:22:54.021Z,35.29
2019-03-16T01:23:54.010Z,35.50
2019-03-16T01:24:54.000Z,33.87
2019-03-16T01:25:53.995Z,34.69
2019-03-16T01:26:53.980Z,35.41
2019-03-16T01:27:54.026Z,34.80
2019-03-16T01:28:53.962Z,35.32
2019-03-16T01:29:53.946Z,33.78
2019-03-16T01:30:53.933Z,41.63
2019-03-16T01:31:53.925Z,37.09
2019-03-16T01:32:53.965Z,40.74
2019-03-16T01:33:53.904Z,39.03
2019-03-16T01:34:53.891Z,36.03
2019-03-16T01:35:53.883Z,31.90
2019-03-16T01:36:53.872Z,34.14
2019-03-16T01:37:53.869Z,35.66
2019-03-16T01:38:53.951Z,35.85
2019-03-16T01:39:53.839Z,28.91
2019-03-16T01:40:53.830Z,31.96
2019-03-16T01:41:53.820Z,27.90
2019-03-16T01:42:53.807Z,32.89
2019-03-16T01:43:53.952Z,28.51
2019-03-16T01:44:53.787Z,31.07
2019-03-16T01:45:53.784Z,31.65
2019-03-16T01:46:53.767Z,30.43
2019-03-16T01:47:53.753Z,28.21
2019-03-16T01:48:53.743Z,28.64
2019-03-16T01:49:53.782Z,28.84
2019-03-16T01:50:53.720Z,29.66
2019-03-16T01:51:53.713Z,28.96
2019-03-16T01:52:53.700Z,27.23
2019-03-16T01:53:53.691Z,29.99
2019-03-16T01:54:53.678Z,30.91
2019-03-16T01:55:53.774Z,31.74
2019-03-16T01:56:53.662Z,31.21
2019-03-16T01:57:53.644Z,30.50
2019-03-16T01:58:53.635Z,29.77
2019-03-16T01:59:53.627Z,27.43
2019-03-16T02:00:53.611Z,27.01
2019-03-16T02:01:53.761Z,28.42
2019-03-16T02:02:55.638Z,29.13
2019-03-16T02:03:53.583Z,27.90
2019-03-16T02:04:53.576Z,27.48
2019-03-16T02:05:53.562Z,27.36
2019-03-16T02:06:53.550Z,27.25
2019-03-16T02:07:53.587Z,27.75
2019-03-16T02:08:53.531Z,26.70
2019-03-16T02:09:53.519Z,26.19
2019-03-16T02:10:53.506Z,25.67
2019-03-16T02:11:53.499Z,25.35
2019-03-16T02:12:53.490Z,25.23
2019-03-16T02:13:53.581Z,25.42
2019-03-16T02:14:53.470Z,25.22
2019-03-16T02:15:53.458Z,24.91
2019-03-16T02:16:53.446Z,25.01
2019-03-16T02:17:53.436Z,25.61
2019-03-16T02:18:53.433Z,24.90
2019-03-16T02:19:53.616Z,24.49
2019-03-16T02:20:53.410Z,24.29
2019-03-16T02:21:53.393Z,25.20
2019-03-16T02:22:53.382Z,24.39
2019-03-16T02:23:53.376Z,23.78
2019-03-16T02:24:53.372Z,23.46
2019-03-16T02:25:53.398Z,22.85
2019-03-16T02:26:53.342Z,22.54
2019-03-16T02:27:53.324Z,22.54
2019-03-16T02:28:53.319Z,23.55
2019-03-16T02:29:53.302Z,23.03
2019-03-16T02:30:53.295Z,22.83
2019-03-16T02:31:53.336Z,23.22
2019-03-16T02:32:53.279Z,23.02
2019-03-16T02:33:53.264Z,22.40
2019-03-16T02:34:53.261Z,21.78
2019-03-16T02:35:53.258Z,21.78
2019-03-16T02:36:53.242Z,21.98
2019-03-16T02:37:53.373Z,21.14
2019-03-16T02:38:53.211Z,20.62
2019-03-16T02:39:53.201Z,20.42
2019-03-16T02:40:53.190Z,21.02
2019-03-16T02:41:53.183Z,20.41
2019-03-16T02:42:53.175Z,20.50
2019-03-16T02:43:53.270Z,19.69
2019-03-16T02:44:53.156Z,19.48
2019-03-16T02:45:53.145Z,19.48
2019-03-16T02:46:53.137Z,19.98
2019-03-16T02:47:53.126Z,20.97
2019-03-16T02:48:53.155Z,19.45
2019-03-16T02:49:53.100Z,20.94
2019-03-16T02:50:53.085Z,21.31
2019-03-16T02:51:53.079Z,16.69
2019-03-16T02:52:53.069Z,20.68
2019-03-16T02:53:53.200Z,16.36
2019-03-16T02:54:53.041Z,17.55
2019-03-16T02:55:53.030Z,18.35
2019-03-16T02:56:53.023Z,19.73
2019-03-16T02:57:53.022Z,18.33
2019-03-16T02:58:53.099Z,17.02
2019-03-16T02:59:52.996Z,14.82
2019-03-16T03:00:52.982Z,14.72
2019-03-16T03:01:52.977Z,14.42
2019-03-16T03:02:52.960Z,14.63
2019-03-16T03:03:52.950Z,16.02
2019-03-16T03:04:52.989Z,16.51
2019-03-16T03:05:52.930Z,14.61
2019-03-16T03:06:52.915Z,14.92
2019-03-16T03:07:52.915Z,14.22
2019-03-16T03:08:52.899Z,15.21
2019-03-16T03:09:52.885Z,16.51
2019-03-16T03:10:52.926Z,17.40
2019-03-16T03:11:52.870Z,16.51
2019-03-16T03:12:52.869Z,16.11
2019-03-16T03:13:52.845Z,17.01
2019-03-16T03:14:52.832Z,17.01
2019-03-16T03:15:52.982Z,16.81
2019-03-16T03:16:52.810Z,19.01
2019-03-16T03:17:52.802Z,19.51
2019-03-16T03:18:52.795Z,19.11
2019-03-16T03:19:52.781Z,17.92
2019-03-16T03:20:52.767Z,19.11
2019-03-16T03:21:52.809Z,17.21
2019-03-16T03:22:52.751Z,16.71
2019-03-16T03:23:52.740Z,17.22
2019-03-16T03:24:52.729Z,16.71
2019-03-16T03:25:52.770Z,17.20
2019-03-16T03:26:52.713Z,17.09
2019-03-16T03:27:52.801Z,16.40
2019-03-16T03:28:52.797Z,18.09
2019-03-16T03:29:57.158Z,18.59
2019-03-16T03:30:52.705Z,17.28
2019-03-16T03:31:52.662Z,17.37
2019-03-16T03:32:52.650Z,17.57
2019-03-16T03:34:02.381Z,17.37
2019-03-16T03:34:53.723Z,16.48
2019-03-16T03:35:52.622Z,17.38
2019-03-16T03:36:52.610Z,16.88
2019-03-16T03:37:52.600Z,15.97
2019-03-16T03:38:52.591Z,15.99
2019-03-16T03:39:52.629Z,17.08
2019-03-16T03:40:52.565Z,16.49
2019-03-16T03:41:52.559Z,17.08
2019-03-16T03:42:52.550Z,16.19
2019-03-16T03:43:52.538Z,13.40
2019-03-16T03:44:52.527Z,13.00
2019-03-16T03:45:52.617Z,13.70
2019-03-16T03:46:52.505Z,14.09
2019-03-16T03:47:52.493Z,14.08
2019-03-16T03:48:52.486Z,14.47
2019-03-16T03:49:52.489Z,14.37
2019-03-16T03:50:52.459Z,14.66
2019-03-16T03:51:52.661Z,14.66
2019-03-16T03:52:52.450Z,14.35
2019-03-16T03:53:52.463Z,14.55
2019-03-16T03:54:52.423Z,14.84
2019-03-16T03:55:52.408Z,14.74
2019-03-16T03:56:52.534Z,14.73
2019-03-16T03:57:52.396Z,14.14
2019-03-16T03:58:52.390Z,14.42
2019-03-16T03:59:52.388Z,13.93
2019-03-16T04:00:52.365Z,15.41
2019-03-16T04:01:52.454Z,12.82
2019-03-16T04:02:52.345Z,14.00
2019-03-16T04:03:52.332Z,13.01
2019-03-16T04:04:52.320Z,12.82
2019-03-16T04:05:52.305Z,14.09
2019-03-16T04:06:52.362Z,13.11
2019-03-16T04:07:52.642Z,12.90
2019-03-16T04:08:52.290Z,13.97
2019-03-16T04:09:52.277Z,13.28
2019-03-16T04:10:52.259Z,12.68
2019-03-16T04:11:52.246Z,13.07
2019-03-16T04:12:52.232Z,12.09
2019-03-16T04:13:52.270Z,12.09
2019-03-16T04:14:52.210Z,12.09
2019-03-16T04:15:52.202Z,12.30
2019-03-16T04:16:52.194Z,12.31
2019-03-16T04:17:52.183Z,12.12
2019-03-16T04:18:52.290Z,13.11
2019-03-16T04:19:52.210Z,12.63
2019-03-16T04:20:52.155Z,13.32
2019-03-16T04:21:52.147Z,11.74
2019-03-16T04:22:52.142Z,12.64
2019-03-16T04:23:52.121Z,12.23
2019-03-16T04:24:52.116Z,12.33
2019-03-16T04:25:52.250Z,12.32
2019-03-16T04:26:52.089Z,12.03
2019-03-16T04:27:52.072Z,12.51
2019-03-16T04:28:52.065Z,13.10
2019-03-16T04:29:52.057Z,11.02
2019-03-16T04:30:52.048Z,10.92
2019-03-16T04:31:52.142Z,12.20
2019-03-16T04:32:52.027Z,11.12
2019-03-16T04:33:52.015Z,10.92
2019-03-16T04:34:51.999Z,11.02
2019-03-16T04:35:51.997Z,11.22
2019-03-16T04:36:51.983Z,10.73
2019-03-16T04:37:52.028Z,11.23
2019-03-16T04:38:51.967Z,11.04
2019-03-16T04:39:51.956Z,12.62
2019-03-16T04:40:51.940Z,12.32
2019-03-16T04:41:51.926Z,12.33
2019-03-16T04:42:51.922Z,12.43
2019-03-16T04:43:52.158Z,14.31
2019-03-16T04:44:51.898Z,11.75
2019-03-16T04:45:51.887Z,12.34
2019-03-16T04:46:51.884Z,13.04
2019-03-16T04:47:51.870Z,12.26
2019-03-16T04:48:51.858Z,12.15
2019-03-16T04:49:51.946Z,13.34
2019-03-16T04:50:51.835Z,12.95
2019-03-16T04:51:51.826Z,12.15
2019-03-16T04:52:51.819Z,12.35
2019-03-16T04:53:51.805Z,12.75
2019-03-16T04:54:51.795Z,13.04
2019-03-16T04:55:51.839Z,12.45
2019-03-16T04:56:51.774Z,12.45
2019-03-16T04:57:51.760Z,13.04
2019-03-16T04:58:51.939Z,13.25
2019-03-16T04:59:51.739Z,13.54
2019-03-16T05:00:51.749Z,12.65
2019-03-16T05:01:51.921Z,12.26
2019-03-16T05:02:51.722Z,12.15
2019-03-16T05:03:51.704Z,11.95
2019-03-16T05:04:51.689Z,12.25
2019-03-16T05:05:51.680Z,12.15
2019-03-16T05:06:51.670Z,12.34
2019-03-16T05:07:51.709Z,12.33
2019-03-16T05:08:51.652Z,11.44
2019-03-16T05:09:51.642Z,11.53
2019-03-16T05:10:51.629Z,11.92
2019-03-16T05:11:51.619Z,12.80
2019-03-16T05:12:51.614Z,11.02
2019-03-16T05:13:51.654Z,10.83
2019-03-16T05:14:51.592Z,11.61
2019-03-16T05:15:51.577Z,12.30
2019-03-16T05:16:51.572Z,13.09
2019-03-16T05:17:51.557Z,11.81
2019-03-16T05:18:51.559Z,14.18
2019-03-16T05:19:51.695Z,12.02
2019-03-16T05:20:51.524Z,11.92
2019-03-16T05:21:51.518Z,12.82
2019-03-16T05:22:51.507Z,13.13
2019-03-16T05:23:51.496Z,12.35
2019-03-16T05:24:51.483Z,13.55
2019-03-16T05:25:51.582Z,12.29
2019-03-16T05:26:51.466Z,12.79
2019-03-16T05:27:51.453Z,16.36
2019-03-16T05:28:51.447Z,14.20
2019-03-16T05:29:51.432Z,17.88
2019-03-16T05:30:51.424Z,14.50
2019-03-16T05:31:51.468Z,15.00
2019-03-16T05:32:51.417Z,14.01
2019-03-16T05:33:51.395Z,15.72
2019-03-16T05:34:56.508Z,16.12
2019-03-16T05:35:51.370Z,15.43
2019-03-16T05:36:51.357Z,15.94
2019-03-16T05:37:51.509Z,16.14
2019-03-16T05:38:51.342Z,16.24
2019-03-16T05:39:51.334Z,16.15
2019-03-16T05:40:51.317Z,16.46
2019-03-16T05:41:51.315Z,18.65
2019-03-16T05:42:51.302Z,16.06
2019-03-16T05:43:51.394Z,16.27
2019-03-16T05:44:51.279Z,16.67
2019-03-16T05:45:51.270Z,17.37
2019-03-16T05:46:51.261Z,16.57
2019-03-16T05:47:51.255Z,16.57
2019-03-16T05:48:51.240Z,16.68
2019-03-16T05:49:51.327Z,17.38
2019-03-16T05:50:51.215Z,17.78
2019-03-16T05:51:51.210Z,17.49
2019-03-16T05:52:51.200Z,16.49
2019-03-16T05:53:51.188Z,16.90
2019-03-16T05:54:51.225Z,20.20
2019-03-16T05:55:51.167Z,19.70
2019-03-16T05:56:51.158Z,18.70
2019-03-16T05:57:51.145Z,17.60
2019-03-16T05:58:51.136Z,20.70
2019-03-16T05:59:51.377Z,15.70
2019-03-16T06:00:51.120Z,18.10
2019-03-16T06:01:51.111Z,17.01
2019-03-16T06:02:51.090Z,16.91
2019-03-16T06:03:51.084Z,17.02
2019-03-16T06:04:51.073Z,18.32
2019-03-16T06:05:51.165Z,19.42
2019-03-16T06:06:51.072Z,19.71
2019-03-16T06:07:51.040Z,19.01
2019-03-16T06:08:51.032Z,18.11
2019-03-16T06:09:51.022Z,19.01
2019-03-16T06:10:51.008Z,18.11
2019-03-16T06:11:51.093Z,18.11
2019-03-16T06:12:50.995Z,18.80
2019-03-16T06:13:50.977Z,18.41
2019-03-16T06:14:50.967Z,18.01
2019-03-16T06:15:50.956Z,16.82
2019-03-16T06:16:50.945Z,16.82
2019-03-16T06:17:51.387Z,16.91
2019-03-16T06:18:50.924Z,18.42
2019-03-16T06:19:50.915Z,19.52
2019-03-16T06:20:50.903Z,17.71
2019-03-16T06:21:50.893Z,19.11
2019-03-16T06:22:50.880Z,19.31
2019-03-16T06:23:51.023Z,17.01
2019-03-16T06:24:50.887Z,21.31
2019-03-16T06:25:50.850Z,19.11
2019-03-16T06:26:50.842Z,16.71
2019-03-16T06:27:50.827Z,16.21
2019-03-16T06:28:50.819Z,16.52
2019-03-16T06:29:50.909Z,16.32
2019-03-16T06:30:50.799Z,17.62
2019-03-16T06:31:50.791Z,16.21
2019-03-16T06:32:50.777Z,15.51
2019-03-16T06:33:50.761Z,16.11
2019-03-16T06:34:50.829Z,16.21
2019-03-16T06:35:50.944Z,16.22
2019-03-16T06:36:50.733Z,16.11
2019-03-16T06:37:50.722Z,16.61
2019-03-16T06:38:50.710Z,18.62
2019-03-16T06:39:50.707Z,16.82
2019-03-16T06:40:50.692Z,17.82
2019-03-16T06:41:50.728Z,17.52
2019-03-16T06:42:50.680Z,17.01
2019-03-16T06:43:50.657Z,17.21
2019-03-16T06:44:50.645Z,17.11
2019-03-16T06:45:50.638Z,16.61
2019-03-16T06:46:50.621Z,15.91
2019-03-16T06:47:50.712Z,16.11
2019-03-16T06:48:50.601Z,20.31
2019-03-16T06:49:50.592Z,19.21
2019-03-16T06:50:50.579Z,17.01
2019-03-16T06:51:50.567Z,20.31
2019-03-16T06:52:50.556Z,17.40
2019-03-16T06:53:50.695Z,18.10
2019-03-16T06:54:50.533Z,17.40
2019-03-16T06:55:50.528Z,16.71
2019-03-16T06:56:50.518Z,17.01
2019-03-16T06:57:50.507Z,16.30
2019-03-16T06:58:50.498Z,16.61
2019-03-16T06:59:50.588Z,17.30
2019-03-16T07:00:50.471Z,17.21
2019-03-16T07:01:50.459Z,17.01
2019-03-16T07:02:50.505Z,17.11
2019-03-16T07:03:50.442Z,16.80
2019-03-16T07:04:50.482Z,16.61
2019-03-16T07:05:50.422Z,16.21
2019-03-16T07:06:50.411Z,17.32
2019-03-16T07:07:50.400Z,16.71
2019-03-16T07:08:50.391Z,16.21
2019-03-16T07:09:50.380Z,16.41
2019-03-16T07:10:50.468Z,16.61
2019-03-16T07:11:50.356Z,16.82
2019-03-16T07:12:50.349Z,17.32
2019-03-16T07:13:50.336Z,16.52
2019-03-16T07:14:50.322Z,16.30
2019-03-16T07:15:50.516Z,17.21
2019-03-16T07:17:01.336Z,17.52
2019-03-16T07:18:15.105Z,17.51
2019-03-16T07:19:15.101Z,16.80
2019-03-16T07:20:15.085Z,17.01
2019-03-16T07:21:15.126Z,16.61
2019-03-16T07:22:15.067Z,16.00
2019-03-16T07:23:15.101Z,16.10
2019-03-16T07:24:15.047Z,16.61
2019-03-16T07:25:15.033Z,17.51
2019-03-16T07:26:15.454Z,18.11
2019-03-16T07:27:25.683Z,16.80
2019-03-16T07:28:39.817Z,14.71
2019-03-16T07:29:39.806Z,14.91
2019-03-16T07:30:39.791Z,14.72
2019-03-16T07:31:39.782Z,15.01
2019-03-16T07:32:39.969Z,15.41
2019-03-16T07:33:39.759Z,15.62
2019-03-16T07:34:39.749Z,15.42
2019-03-16T07:35:39.737Z,15.52
2019-03-16T07:36:39.730Z,15.92
2019-03-16T07:37:39.725Z,16.21
2019-03-16T07:38:39.757Z,16.21
2019-03-16T07:39:39.697Z,14.11
2019-03-16T07:40:39.687Z,15.11
2019-03-16T07:41:39.680Z,14.01
2019-03-16T07:42:39.664Z,15.01
2019-03-16T07:43:39.658Z,15.50
2019-03-16T07:44:39.695Z,15.11
2019-03-16T07:45:39.638Z,15.61
2019-03-16T07:46:39.625Z,14.30
2019-03-16T07:47:39.615Z,14.50
2019-03-16T07:48:39.605Z,14.41
2019-03-16T07:49:39.594Z,13.00
2019-03-16T07:50:39.786Z,13.31
2019-03-16T07:51:39.570Z,14.31
2019-03-16T07:52:39.561Z,14.71
2019-03-16T07:53:39.550Z,12.11
2019-03-16T07:54:39.540Z,13.11
2019-03-16T07:55:42.147Z,13.40
2019-03-16T07:56:39.571Z,13.30
2019-03-16T07:57:40.726Z,12.31
2019-03-16T07:58:39.500Z,13.40
2019-03-16T07:59:39.489Z,12.10
2019-03-16T08:00:39.483Z,12.01
2019-03-16T08:01:39.468Z,11.70
2019-03-16T08:02:39.506Z,12.11
2019-03-16T08:03:39.448Z,12.91
2019-03-16T08:04:39.437Z,12.61
2019-03-16T08:05:39.425Z,12.41
2019-03-16T08:06:39.416Z,13.41
2019-03-16T08:07:39.408Z,12.70
2019-03-16T08:08:39.548Z,12.60
2019-03-16T08:09:39.406Z,11.00
2019-03-16T08:10:39.379Z,12.31
2019-03-16T08:11:39.359Z,12.51
2019-03-16T08:12:39.357Z,12.70
2019-03-16T08:13:39.346Z,13.40
2019-03-16T08:14:39.378Z,13.40
2019-03-16T08:15:39.317Z,12.60
2019-03-16T08:16:39.309Z,12.70
2019-03-16T08:17:39.298Z,13.40
2019-03-16T08:18:39.284Z,13.00
2019-03-16T08:19:39.283Z,13.20
2019-03-16T08:20:39.317Z,13.29
2019-03-16T08:21:39.258Z,13.40
2019-03-16T08:22:39.245Z,13.29
2019-03-16T08:23:39.236Z,14.20
2019-03-16T08:24:39.230Z,13.70
2019-03-16T08:25:39.216Z,13.00
2019-03-16T08:26:39.357Z,13.40
2019-03-16T08:27:39.198Z,13.00
2019-03-16T08:28:39.193Z,14.20
2019-03-16T08:29:39.173Z,14.59
2019-03-16T08:30:39.164Z,14.19
2019-03-16T08:31:39.154Z,14.20
2019-03-16T08:32:39.192Z,14.49
2019-03-16T08:33:39.133Z,12.99
2019-03-16T08:34:39.124Z,14.19
2019-03-16T08:35:39.113Z,14.19
2019-03-16T08:36:39.102Z,14.09
2019-03-16T08:37:39.091Z,13.39
2019-03-16T08:38:39.130Z,13.29
2019-03-16T08:39:39.069Z,14.50
2019-03-16T08:40:39.058Z,12.60
2019-03-16T08:41:39.049Z,13.11
2019-03-16T08:42:39.042Z,13.30
2019-03-16T08:43:39.026Z,13.30
2019-03-16T08:44:39.218Z,13.20
2019-03-16T08:45:39.007Z,14.11
2019-03-16T08:46:39.003Z,14.61
2019-03-16T08:47:38.990Z,14.50
2019-03-16T08:48:38.975Z,14.30
2019-03-16T08:49:38.968Z,14.61
2019-03-16T08:50:39.004Z,13.30
2019-03-16T08:51:38.946Z,13.61
2019-03-16T08:52:38.935Z,13.61
2019-03-16T08:53:38.925Z,13.21
2019-03-16T08:54:38.910Z,13.21
2019-03-16T08:55:38.904Z,13.21
2019-03-16T08:56:38.941Z,14.21
2019-03-16T08:57:38.887Z,14.91
2019-03-16T08:58:38.874Z,15.11
2019-03-16T08:59:38.862Z,14.61
2019-03-16T09:00:38.853Z,14.80
2019-03-16T09:01:38.840Z,14.61
2019-03-16T09:02:39.080Z,14.41
2019-03-16T09:03:43.490Z,14.30
2019-03-16T09:04:38.812Z,14.30
2019-03-16T09:05:38.799Z,14.41
2019-03-16T09:06:38.793Z,13.40
2019-03-16T09:07:38.781Z,13.40
2019-03-16T09:08:38.825Z,14.11
2019-03-16T09:09:38.757Z,14.30
2019-03-16T09:10:38.745Z,14.50
2019-03-16T09:11:38.732Z,14.90
2019-03-16T09:12:38.730Z,14.20
2019-03-16T09:13:38.720Z,14.10
2019-03-16T09:14:38.752Z,14.50
2019-03-16T09:15:38.694Z,14.30
2019-03-16T09:16:38.685Z,14.89
2019-03-16T09:17:38.679Z,14.50
2019-03-16T09:18:38.668Z,13.40
2019-03-16T09:19:38.653Z,14.70
2019-03-16T09:20:39.092Z,13.50
2019-03-16T09:21:38.627Z,14.20
2019-03-16T09:22:38.620Z,14.20
2019-03-16T09:23:38.614Z,13.40
2019-03-16T09:24:38.597Z,14.11
2019-03-16T09:25:38.592Z,14.30
2019-03-16T09:26:38.681Z,13.61
2019-03-16T09:27:38.571Z,12.80
2019-03-16T09:28:38.560Z,13.20
2019-03-16T09:29:38.550Z,13.30
2019-03-16T09:30:38.541Z,14.20
2019-03-16T09:31:38.531Z,14.50
2019-03-16T09:32:38.568Z,14.70
2019-03-16T09:33:38.515Z,14.00
2019-03-16T09:34:38.499Z,14.50
2019-03-16T09:35:38.486Z,14.50
2019-03-16T09:36:38.477Z,14.09
2019-03-16T09:37:38.495Z,14.60
2019-03-16T09:38:38.659Z,14.30
2019-03-16T09:39:38.447Z,14.99
2019-03-16T09:40:38.434Z,14.29
2019-03-16T09:41:38.423Z,14.49
2019-03-16T09:42:38.424Z,15.09
2019-03-16T09:43:38.412Z,14.28
2019-03-16T09:44:38.442Z,14.49
2019-03-16T09:45:38.384Z,14.29
2019-03-16T09:46:38.375Z,14.39
2019-03-16T09:47:38.364Z,14.99
2019-03-16T09:48:38.355Z,13.99
2019-03-16T09:49:38.341Z,14.29
2019-03-16T09:50:38.434Z,14.39
2019-03-16T09:51:38.322Z,14.19
2019-03-16T09:52:38.313Z,14.00
2019-03-16T09:53:38.302Z,14.59
2019-03-16T09:54:38.289Z,14.89
2019-03-16T09:55:38.276Z,14.69
2019-03-16T09:56:38.419Z,15.49
2019-03-16T09:57:38.256Z,15.19
2019-03-16T09:58:38.248Z,15.59
2019-03-16T09:59:38.238Z,14.09
2019-03-16T10:00:38.228Z,14.08
2019-03-16T10:01:38.216Z,13.39
2019-03-16T10:02:38.252Z,13.39
2019-03-16T10:03:38.200Z,13.29
2019-03-16T10:04:38.188Z,13.49
2019-03-16T10:05:38.176Z,13.09
2019-03-16T10:06:38.163Z,13.29
2019-03-16T10:07:38.157Z,13.29
2019-03-16T10:08:38.350Z,14.19
2019-03-16T10:09:38.131Z,13.39
2019-03-16T10:10:38.122Z,14.49
2019-03-16T10:11:38.108Z,14.48
2019-03-16T10:12:38.099Z,14.79
2019-03-16T10:13:38.090Z,15.28
2019-03-16T10:14:38.276Z,14.58
2019-03-16T10:15:38.073Z,15.58
2019-03-16T10:16:38.057Z,14.58
2019-03-16T10:17:38.047Z,14.28
2019-03-16T10:18:38.040Z,14.89
2019-03-16T10:19:38.025Z,14.59
2019-03-16T10:20:38.064Z,14.69
2019-03-16T10:21:38.006Z,13.49
2019-03-16T10:22:37.993Z,12.90
2019-03-16T10:23:37.987Z,14.09
2019-03-16T10:24:37.979Z,13.29
2019-03-16T10:25:37.959Z,13.20
2019-03-16T10:26:38.002Z,13.20
2019-03-16T10:27:37.941Z,13.50
2019-03-16T10:28:43.590Z,13.40
2019-03-16T10:29:37.921Z,12.69
2019-03-16T10:30:37.911Z,13.29
2019-03-16T10:31:37.900Z,13.00
2019-03-16T10:32:38.043Z,14.49
2019-03-16T10:33:37.875Z,13.29
2019-03-16T10:34:37.868Z,13.19
2019-03-16T10:35:37.857Z,12.99
2019-03-16T10:36:37.846Z,14.59
2019-03-16T10:37:37.837Z,14.89
2019-03-16T10:38:38.552Z,14.09
2019-03-16T10:39:37.815Z,14.28
2019-03-16T10:40:37.804Z,12.98
2019-03-16T10:41:37.792Z,14.08
2019-03-16T10:42:37.780Z,13.39
2019-03-16T10:43:37.769Z,13.29
2019-03-16T10:44:37.860Z,14.69
2019-03-16T10:45:37.749Z,13.49
2019-03-16T10:46:37.737Z,12.79
2019-03-16T10:47:37.726Z,12.39
2019-03-16T10:48:37.711Z,12.69
2019-03-16T10:49:37.702Z,13.20
2019-03-16T10:50:38.096Z,12.50
2019-03-16T10:51:37.675Z,12.90
2019-03-16T10:52:37.678Z,12.70
2019-03-16T10:53:37.658Z,14.10
2019-03-16T10:54:37.644Z,14.30
2019-03-16T10:55:37.637Z,14.20
2019-03-16T10:56:37.731Z,14.80
2019-03-16T10:57:37.616Z,14.79
2019-03-16T10:58:37.605Z,14.60
2019-03-16T10:59:37.595Z,15.49
2019-03-16T11:00:37.582Z,15.09
2019-03-16T11:01:37.570Z,15.39
2019-03-16T11:02:37.611Z,14.29
2019-03-16T11:03:39.548Z,15.38
2019-03-16T11:04:37.541Z,15.08
2019-03-16T11:05:37.530Z,14.28
2019-03-16T11:06:37.517Z,14.48
2019-03-16T11:07:37.505Z,14.19
2019-03-16T11:08:37.647Z,14.58
2019-03-16T11:09:37.515Z,15.58
2019-03-16T11:10:37.474Z,13.99
2019-03-16T11:11:37.493Z,15.49
2019-03-16T11:12:37.452Z,14.49
2019-03-16T11:13:37.448Z,14.49
2019-03-16T11:14:37.535Z,14.79
2019-03-16T11:15:37.418Z,13.70
2019-03-16T11:16:37.409Z,14.10
2019-03-16T11:17:37.399Z,14.60
2019-03-16T11:18:37.383Z,14.60
2019-03-16T11:19:37.374Z,13.20
2019-03-16T11:20:37.471Z,14.11
2019-03-16T11:21:37.352Z,12.70
2019-03-16T11:22:37.341Z,14.41
2019-03-16T11:23:37.332Z,14.61
2019-03-16T11:24:37.319Z,14.31
2019-03-16T11:25:37.315Z,14.41
2019-03-16T11:26:37.453Z,14.61
2019-03-16T11:27:37.287Z,15.01
2019-03-16T11:28:37.277Z,14.21
2019-03-16T11:29:37.262Z,15.42
2019-03-16T11:30:37.252Z,15.62
2019-03-16T11:31:37.245Z,14.72
2019-03-16T11:32:37.287Z,14.52
2019-03-16T11:33:37.218Z,15.12
2019-03-16T11:34:37.209Z,15.42
2019-03-16T11:35:37.202Z,15.82
2019-03-16T11:36:37.188Z,15.82
2019-03-16T11:37:37.179Z,15.22
2019-03-16T11:38:37.274Z,15.62
2019-03-16T11:39:37.161Z,15.22
2019-03-16T11:40:37.148Z,15.52
2019-03-16T11:41:37.137Z,15.82
2019-03-16T11:42:37.123Z,16.42
2019-03-16T11:43:37.115Z,16.32
2019-03-16T11:44:37.361Z,16.02
2019-03-16T11:45:37.092Z,15.62
2019-03-16T11:46:37.078Z,16.22
2019-03-16T11:47:37.071Z,16.21
2019-03-16T11:48:37.063Z,16.21
2019-03-16T11:49:37.049Z,16.61
2019-03-16T11:50:37.088Z,15.62
2019-03-16T11:51:37.033Z,15.71
2019-03-16T11:52:37.018Z,16.52
2019-03-16T11:53:37.005Z,16.32
2019-03-16T11:54:36.996Z,16.32
2019-03-16T11:55:36.985Z,16.91
2019-03-16T11:56:37.071Z,16.71
2019-03-16T11:57:36.959Z,16.32
2019-03-16T11:58:36.950Z,16.52
2019-03-16T11:59:36.946Z,16.02
2019-03-16T12:00:36.928Z,16.22
2019-03-16T12:01:36.917Z,16.32
2019-03-16T12:02:37.062Z,17.23
2019-03-16T12:03:36.898Z,16.82
2019-03-16T12:04:36.886Z,16.12
2019-03-16T12:05:36.877Z,16.12
2019-03-16T12:06:36.867Z,16.13
2019-03-16T12:07:36.854Z,16.53
2019-03-16T12:08:39.581Z,17.23
2019-03-16T12:09:36.838Z,17.13
2019-03-16T12:10:36.828Z,16.93
2019-03-16T12:11:36.810Z,17.33
2019-03-16T12:12:36.802Z,17.33
2019-03-16T12:13:36.790Z,16.84
2019-03-16T12:14:36.878Z,17.64
2019-03-16T12:15:36.774Z,17.84
2019-03-16T12:16:36.761Z,17.04
2019-03-16T12:17:36.755Z,17.84
2019-03-16T12:18:36.740Z,18.04
2019-03-16T12:19:36.726Z,17.84
2019-03-16T12:20:36.878Z,17.54
2019-03-16T12:21:36.723Z,17.54
2019-03-16T12:22:36.698Z,18.24
2019-03-16T12:23:36.693Z,17.94
2019-03-16T12:24:36.672Z,17.85
2019-03-16T12:25:36.668Z,17.85
2019-03-16T12:26:36.752Z,17.75
2019-03-16T12:27:36.645Z,17.55
2019-03-16T12:28:36.634Z,17.26
2019-03-16T12:29:36.625Z,17.46
2019-03-16T12:30:36.612Z,17.55
2019-03-16T12:31:36.602Z,17.46
2019-03-16T12:32:36.643Z,17.96
2019-03-16T12:33:36.594Z,17.57
2019-03-16T12:34:36.569Z,17.77
2019-03-16T12:35:36.565Z,17.97
2019-03-16T12:36:36.552Z,18.17
2019-03-16T12:37:36.542Z,17.97
2019-03-16T12:38:36.778Z,17.77
2019-03-16T12:39:36.514Z,18.28
2019-03-16T12:40:36.509Z,18.38
2019-03-16T12:41:36.515Z,18.38
2019-03-16T12:42:36.494Z,17.98
2019-03-16T12:43:36.476Z,18.58
2019-03-16T12:44:36.561Z,18.99
2019-03-16T12:45:36.460Z,18.99
2019-03-16T12:46:36.445Z,19.09
2019-03-16T12:47:36.430Z,19.09
2019-03-16T12:48:36.423Z,18.59
2019-03-16T12:49:36.414Z,19.19
2019-03-16T12:50:36.449Z,18.70
2019-03-16T12:51:36.395Z,19.20
2019-03-16T12:52:36.380Z,19.40
2019-03-16T12:53:39.349Z,19.70